Ulster, Pennsylvania
Current Conditions -  °F | °C
As of 7:53 PM on Sunday 23 Nov 2014 (Local Time) from KELM Reporting Station
Clear Clear  
Wind Chill: 47°   Ceiling: Unl
Heat Index: 49°   Visibility: 10mi
Dew Point: 32°   Wind: 5mph
Humidity: 52%   Direction: 130°SE
Pressure: 29.92"   Gusts: NA
Location:  41.85°N, 76.5°W
Report Text: KELM 240053Z AUTO 13004KT 10SM CLR 09/00 A2992 RMK AO2 SLP136 T00940000
Loading
Personal Weather Stations






























Interactive Weather Map New forecast layout! Learn more

10-Day Weather Forecast

Advertisements
Track Severe Weather on mobile